sensor_id;sensor_type;location;lat;lon;timestamp;pressure;altitude;pressure_sealevel;temperature;humidity
75401;BME280;63974;47.538;18.972;2024-03-02T00:01:44;99551.41;;;8.83;89.41
75401;BME280;63974;47.538;18.972;2024-03-02T00:04:47;99542.03;;;8.82;89.42
75401;BME280;63974;47.538;18.972;2024-03-02T00:10:58;99549.88;;;8.89;89.17
75401;BME280;63974;47.538;18.972;2024-03-02T00:14:01;99553.72;;;8.93;89.10
75401;BME280;63974;47.538;18.972;2024-03-02T00:17:04;99547.31;;;9.03;88.94
75401;BME280;63974;47.538;18.972;2024-03-02T00:20:09;99532.59;;;9.04;88.74
75401;BME280;63974;47.538;18.972;2024-03-02T00:23:16;99538.81;;;8.95;88.81
75401;BME280;63974;47.538;18.972;2024-03-02T00:26:21;99530.28;;;8.72;90.42
75401;BME280;63974;47.538;18.972;2024-03-02T00:29:24;99526.13;;;8.85;89.79
75401;BME280;63974;47.538;18.972;2024-03-02T00:32:27;99525.16;;;8.86;89.78
75401;BME280;63974;47.538;18.972;2024-03-02T00:35:30;99514.38;;;8.97;89.11
75401;BME280;63974;47.538;18.972;2024-03-02T00:38:34;99517.84;;;9.04;88.73
75401;BME280;63974;47.538;18.972;2024-03-02T00:41:43;99518.19;;;9.01;88.63
75401;BME280;63974;47.538;18.972;2024-03-02T00:44:46;99509.63;;;8.86;89.38
75401;BME280;63974;47.538;18.972;2024-03-02T00:47:50;99520.66;;;8.80;89.79
75401;BME280;63974;47.538;18.972;2024-03-02T00:50:53;99521.28;;;8.68;90.77
75401;BME280;63974;47.538;18.972;2024-03-02T00:53:59;99523.81;;;8.76;90.74
75401;BME280;63974;47.538;18.972;2024-03-02T00:57:03;99520.41;;;8.76;90.72
75401;BME280;63974;47.538;18.972;2024-03-02T01:00:07;99527.06;;;8.70;90.88
75401;BME280;63974;47.538;18.972;2024-03-02T01:03:14;99522.63;;;8.78;90.69
75401;BME280;63974;47.538;18.972;2024-03-02T01:06:17;99525.13;;;8.72;91.30
75401;BME280;63974;47.538;18.972;2024-03-02T01:09:20;99533.19;;;8.77;91.08
75401;BME280;63974;47.538;18.972;2024-03-02T01:12:23;99529.72;;;8.62;91.61
75401;BME280;63974;47.538;18.972;2024-03-02T01:15:26;99528.59;;;8.65;91.66
75401;BME280;63974;47.538;18.972;2024-03-02T01:18:29;99526.03;;;8.42;92.58
75401;BME280;63974;47.538;18.972;2024-03-02T01:21:32;99522.72;;;8.48;92.68
75401;BME280;63974;47.538;18.972;2024-03-02T01:24:34;99521.09;;;8.70;91.73
75401;BME280;63974;47.538;18.972;2024-03-02T01:27:37;99523.25;;;8.66;91.64
75401;BME280;63974;47.538;18.972;2024-03-02T01:30:40;99532.78;;;8.66;91.73
75401;BME280;63974;47.538;18.972;2024-03-02T01:33:43;99532.91;;;8.50;92.55
75401;BME280;63974;47.538;18.972;2024-03-02T01:36:45;99525.56;;;8.39;93.12
75401;BME280;63974;47.538;18.972;2024-03-02T01:39:48;99519.69;;;8.45;93.17
75401;BME280;63974;47.538;18.972;2024-03-02T01:42:51;99527.03;;;8.56;92.81
75401;BME280;63974;47.538;18.972;2024-03-02T01:45:54;99522.69;;;8.56;92.86
75401;BME280;63974;47.538;18.972;2024-03-02T01:48:57;99530.44;;;8.56;93.09
75401;BME280;63974;47.538;18.972;2024-03-02T01:52:00;99532.22;;;8.56;92.96
75401;BME280;63974;47.538;18.972;2024-03-02T01:55:03;99533.91;;;8.49;93.35
75401;BME280;63974;47.538;18.972;2024-03-02T01:58:06;99526.25;;;8.33;94.38
75401;BME280;63974;47.538;18.972;2024-03-02T02:01:09;99534.31;;;8.38;94.10
75401;BME280;63974;47.538;18.972;2024-03-02T02:04:12;99534.22;;;8.23;94.64
75401;BME280;63974;47.538;18.972;2024-03-02T02:07:16;99530.28;;;8.35;94.39
75401;BME280;63974;47.538;18.972;2024-03-02T02:10:18;99536.66;;;8.47;93.72
75401;BME280;63974;47.538;18.972;2024-03-02T02:13:21;99533.91;;;8.49;93.54
75401;BME280;63974;47.538;18.972;2024-03-02T02:16:24;99544.34;;;8.55;93.26
75401;BME280;63974;47.538;18.972;2024-03-02T02:19:26;99528.16;;;8.39;93.94
75401;BME280;63974;47.538;18.972;2024-03-02T02:22:29;99534.97;;;8.32;94.93
75401;BME280;63974;47.538;18.972;2024-03-02T02:25:32;99530.47;;;8.34;94.86
75401;BME280;63974;47.538;18.972;2024-03-02T02:28:34;99533.31;;;8.39;94.63
75401;BME280;63974;47.538;18.972;2024-03-02T02:31:41;99525.59;;;8.31;95.25
75401;BME280;63974;47.538;18.972;2024-03-02T02:34:44;99530.50;;;8.26;95.71
75401;BME280;63974;47.538;18.972;2024-03-02T02:37:48;99532.63;;;8.22;95.87
75401;BME280;63974;47.538;18.972;2024-03-02T02:40:51;99525.72;;;8.37;95.07
75401;BME280;63974;47.538;18.972;2024-03-02T02:43:54;99525.44;;;8.32;95.26
75401;BME280;63974;47.538;18.972;2024-03-02T02:46:56;99527.34;;;8.38;94.98
75401;BME280;63974;47.538;18.972;2024-03-02T02:49:59;99522.63;;;8.42;94.81
75401;BME280;63974;47.538;18.972;2024-03-02T02:53:01;99516.56;;;8.49;94.45
75401;BME280;63974;47.538;18.972;2024-03-02T02:56:04;99508.50;;;8.52;94.08
75401;BME280;63974;47.538;18.972;2024-03-02T02:59:07;99513.13;;;8.57;93.71
75401;BME280;63974;47.538;18.972;2024-03-02T03:02:10;99508.75;;;8.57;93.85
75401;BME280;63974;47.538;18.972;2024-03-02T03:05:13;99512.78;;;8.60;93.64
75401;BME280;63974;47.538;18.972;2024-03-02T03:08:17;99512.50;;;8.55;93.97
75401;BME280;63974;47.538;18.972;2024-03-02T03:11:19;99505.44;;;8.49;94.23
75401;BME280;63974;47.538;18.972;2024-03-02T03:14:22;99507.22;;;8.48;94.47
75401;BME280;63974;47.538;18.972;2024-03-02T03:17:25;99509.91;;;8.55;94.11
75401;BME280;63974;47.538;18.972;2024-03-02T03:20:27;99505.34;;;8.57;94.28
75401;BME280;63974;47.538;18.972;2024-03-02T03:23:30;99503.69;;;8.64;93.62
75401;BME280;63974;47.538;18.972;2024-03-02T03:26:35;99501.72;;;8.66;93.24
75401;BME280;63974;47.538;18.972;2024-03-02T03:29:38;99502.53;;;8.66;93.52
75401;BME280;63974;47.538;18.972;2024-03-02T03:32:41;99499.94;;;8.66;93.34
75401;BME280;63974;47.538;18.972;2024-03-02T03:35:44;99506.16;;;8.57;93.64
75401;BME280;63974;47.538;18.972;2024-03-02T03:38:46;99511.81;;;8.61;93.61
75401;BME280;63974;47.538;18.972;2024-03-02T03:41:50;99507.94;;;8.57;93.72
75401;BME280;63974;47.538;18.972;2024-03-02T03:44:53;99502.75;;;8.42;94.61
75401;BME280;63974;47.538;18.972;2024-03-02T03:47:56;99514.63;;;8.51;94.48
75401;BME280;63974;47.538;18.972;2024-03-02T03:50:59;99509.28;;;8.53;93.99
75401;BME280;63974;47.538;18.972;2024-03-02T03:54:02;99524.22;;;8.43;94.78
75401;BME280;63974;47.538;18.972;2024-03-02T03:57:04;99522.41;;;8.29;95.24
75401;BME280;63974;47.538;18.972;2024-03-02T04:00:07;99527.00;;;8.19;96.15
75401;BME280;63974;47.538;18.972;2024-03-02T04:03:15;99530.66;;;8.24;95.90
75401;BME280;63974;47.538;18.972;2024-03-02T04:06:18;99524.88;;;8.22;95.84
75401;BME280;63974;47.538;18.972;2024-03-02T04:09:21;99526.94;;;8.27;95.87
75401;BME280;63974;47.538;18.972;2024-03-02T04:12:24;99528.03;;;8.32;95.55
75401;BME280;63974;47.538;18.972;2024-03-02T04:15:26;99528.31;;;8.37;95.49
75401;BME280;63974;47.538;18.972;2024-03-02T04:18:29;99521.41;;;8.30;95.42
75401;BME280;63974;47.538;18.972;2024-03-02T04:21:32;99530.16;;;8.29;95.49
75401;BME280;63974;47.538;18.972;2024-03-02T04:24:34;99530.16;;;8.29;95.45
75401;BME280;63974;47.538;18.972;2024-03-02T04:27:37;99532.00;;;8.12;96.84
75401;BME280;63974;47.538;18.972;2024-03-02T04:30:40;99532.97;;;8.19;96.61
75401;BME280;63974;47.538;18.972;2024-03-02T04:33:43;99533.09;;;8.26;96.29
75401;BME280;63974;47.538;18.972;2024-03-02T04:36:45;99535.31;;;8.29;96.18
75401;BME280;63974;47.538;18.972;2024-03-02T04:39:48;99537.56;;;8.32;95.91
75401;BME280;63974;47.538;18.972;2024-03-02T04:42:51;99537.78;;;8.45;95.16
75401;BME280;63974;47.538;18.972;2024-03-02T04:45:54;99535.91;;;8.39;95.39
75401;BME280;63974;47.538;18.972;2024-03-02T04:48:57;99545.78;;;8.35;95.70
75401;BME280;63974;47.538;18.972;2024-03-02T04:51:59;99549.50;;;8.33;95.78
75401;BME280;63974;47.538;18.972;2024-03-02T04:55:04;99548.09;;;8.30;95.76
75401;BME280;63974;47.538;18.972;2024-03-02T04:58:27;99542.31;;;8.28;96.19
75401;BME280;63974;47.538;18.972;2024-03-02T05:01:29;99544.66;;;8.38;95.53
75401;BME280;63974;47.538;18.972;2024-03-02T05:04:32;99549.97;;;8.36;95.65
75401;BME280;63974;47.538;18.972;2024-03-02T05:07:35;99549.31;;;8.42;95.23
75401;BME280;63974;47.538;18.972;2024-03-02T05:10:37;99548.38;;;8.35;95.81
75401;BME280;63974;47.538;18.972;2024-03-02T05:13:40;99551.47;;;8.31;96.40
75401;BME280;63974;47.538;18.972;2024-03-02T05:16:43;99546.53;;;8.44;95.36
75401;BME280;63974;47.538;18.972;2024-03-02T05:19:45;99554.81;;;8.39;95.88
75401;BME280;63974;47.538;18.972;2024-03-02T05:22:48;99553.84;;;8.40;96.25
75401;BME280;63974;47.538;18.972;2024-03-02T05:25:52;99551.16;;;8.34;96.08
75401;BME280;63974;47.538;18.972;2024-03-02T05:28:58;99555.13;;;8.22;97.49
75401;BME280;63974;47.538;18.972;2024-03-02T05:32:01;99561.94;;;8.37;96.42
75401;BME280;63974;47.538;18.972;2024-03-02T05:35:04;99560.16;;;8.38;95.77
75401;BME280;63974;47.538;18.972;2024-03-02T05:38:08;99566.59;;;8.42;95.73
75401;BME280;63974;47.538;18.972;2024-03-02T05:41:11;99575.81;;;8.44;95.52
75401;BME280;63974;47.538;18.972;2024-03-02T05:44:14;99576.53;;;8.53;95.03
75401;BME280;63974;47.538;18.972;2024-03-02T05:47:17;99571.38;;;8.53;95.49
75401;BME280;63974;47.538;18.972;2024-03-02T05:50:20;99577.13;;;8.40;96.22
75401;BME280;63974;47.538;18.972;2024-03-02T05:53:23;99584.22;;;8.38;96.45
75401;BME280;63974;47.538;18.972;2024-03-02T05:56:26;99584.47;;;8.51;96.06
75401;BME280;63974;47.538;18.972;2024-03-02T05:59:28;99597.09;;;8.54;96.64
75401;BME280;63974;47.538;18.972;2024-03-02T06:02:31;99589.13;;;8.56;95.86
75401;BME280;63974;47.538;18.972;2024-03-02T06:05:33;99593.63;;;8.62;95.42
75401;BME280;63974;47.538;18.972;2024-03-02T06:08:36;99594.88;;;8.66;95.81
75401;BME280;63974;47.538;18.972;2024-03-02T06:11:40;99595.91;;;8.57;97.26
75401;BME280;63974;47.538;18.972;2024-03-02T06:14:43;99601.19;;;8.63;97.16
75401;BME280;63974;47.538;18.972;2024-03-02T06:17:46;99588.50;;;8.31;99.32
75401;BME280;63974;47.538;18.972;2024-03-02T06:20:48;99606.22;;;8.42;99.57
75401;BME280;63974;47.538;18.972;2024-03-02T06:23:51;99610.06;;;8.46;99.84
75401;BME280;63974;47.538;18.972;2024-03-02T06:26:54;99610.81;;;8.55;98.68
75401;BME280;63974;47.538;18.972;2024-03-02T06:29:59;99614.25;;;8.47;100.00
75401;BME280;63974;47.538;18.972;2024-03-02T06:33:02;99621.91;;;8.41;100.00
75401;BME280;63974;47.538;18.972;2024-03-02T06:36:06;99621.50;;;8.52;99.60
75401;BME280;63974;47.538;18.972;2024-03-02T06:39:14;99619.78;;;8.44;100.00
75401;BME280;63974;47.538;18.972;2024-03-02T06:42:16;99615.69;;;8.50;100.00
75401;BME280;63974;47.538;18.972;2024-03-02T06:45:19;99617.53;;;8.64;100.00
75401;BME280;63974;47.538;18.972;2024-03-02T06:48:22;99618.16;;;8.66;100.00
75401;BME280;63974;47.538;18.972;2024-03-02T06:51:25;99620.13;;;8.64;100.00
75401;BME280;63974;47.538;18.972;2024-03-02T06:54:28;99629.44;;;8.50;100.00
75401;BME280;63974;47.538;18.972;2024-03-02T06:57:31;99631.69;;;8.53;100.00
75401;BME280;63974;47.538;18.972;2024-03-02T07:00:33;99629.00;;;8.47;100.00
75401;BME280;63974;47.538;18.972;2024-03-02T07:03:36;99633.81;;;8.72;100.00
75401;BME280;63974;47.538;18.972;2024-03-02T07:06:39;99645.88;;;8.79;100.00
75401;BME280;63974;47.538;18.972;2024-03-02T07:09:42;99639.53;;;8.90;100.00
75401;BME280;63974;47.538;18.972;2024-03-02T07:12:44;99644.19;;;8.94;100.00
75401;BME280;63974;47.538;18.972;2024-03-02T07:15:47;99647.66;;;9.01;100.00
75401;BME280;63974;47.538;18.972;2024-03-02T07:19:08;99654.81;;;8.99;100.00
75401;BME280;63974;47.538;18.972;2024-03-02T07:22:11;99651.75;;;9.18;100.00
75401;BME280;63974;47.538;18.972;2024-03-02T07:25:14;99648.91;;;9.28;100.00
75401;BME280;63974;47.538;18.972;2024-03-02T07:28:20;99646.22;;;9.36;100.00
75401;BME280;63974;47.538;18.972;2024-03-02T07:31:23;99646.13;;;9.29;100.00
75401;BME280;63974;47.538;18.972;2024-03-02T07:34:25;99656.25;;;9.39;100.00
75401;BME280;63974;47.538;18.972;2024-03-02T07:37:28;99662.22;;;9.39;99.81
75401;BME280;63974;47.538;18.972;2024-03-02T07:40:30;99658.38;;;9.35;99.47
75401;BME280;63974;47.538;18.972;2024-03-02T07:43:33;99658.53;;;9.19;100.00
75401;BME280;63974;47.538;18.972;2024-03-02T07:46:36;99655.69;;;9.29;100.00
75401;BME280;63974;47.538;18.972;2024-03-02T07:49:39;99665.63;;;9.40;99.44
75401;BME280;63974;47.538;18.972;2024-03-02T07:52:42;99664.59;;;9.26;99.28
75401;BME280;63974;47.538;18.972;2024-03-02T07:55:44;99666.56;;;9.24;99.51
75401;BME280;63974;47.538;18.972;2024-03-02T07:58:48;99662.16;;;9.10;99.60
75401;BME280;63974;47.538;18.972;2024-03-02T08:01:51;99657.56;;;9.20;99.05
75401;BME280;63974;47.538;18.972;2024-03-02T08:04:54;99656.47;;;9.29;98.60
75401;BME280;63974;47.538;18.972;2024-03-02T08:07:57;99654.59;;;9.23;99.55
75401;BME280;63974;47.538;18.972;2024-03-02T08:10:59;99659.16;;;9.36;99.30
75401;BME280;63974;47.538;18.972;2024-03-02T08:14:03;99662.38;;;9.23;100.00
75401;BME280;63974;47.538;18.972;2024-03-02T08:17:06;99660.06;;;9.28;99.72
75401;BME280;63974;47.538;18.972;2024-03-02T08:20:12;99662.41;;;9.38;98.43
75401;BME280;63974;47.538;18.972;2024-03-02T08:23:15;99667.97;;;9.49;97.39
75401;BME280;63974;47.538;18.972;2024-03-02T08:26:17;99654.75;;;9.44;98.61
75401;BME280;63974;47.538;18.972;2024-03-02T08:29:20;99665.22;;;9.28;99.06
75401;BME280;63974;47.538;18.972;2024-03-02T08:32:23;99666.16;;;9.35;98.70
75401;BME280;63974;47.538;18.972;2024-03-02T08:35:25;99656.88;;;9.41;98.39
75401;BME280;63974;47.538;18.972;2024-03-02T08:38:28;99658.38;;;9.35;99.17
75401;BME280;63974;47.538;18.972;2024-03-02T08:41:31;99672.31;;;9.12;100.00
75401;BME280;63974;47.538;18.972;2024-03-02T08:44:34;99672.34;;;8.89;100.00
75401;BME280;63974;47.538;18.972;2024-03-02T08:47:37;99671.38;;;8.90;100.00
75401;BME280;63974;47.538;18.972;2024-03-02T08:50:39;99667.28;;;8.96;100.00
75401;BME280;63974;47.538;18.972;2024-03-02T08:53:42;99665.31;;;8.98;100.00
75401;BME280;63974;47.538;18.972;2024-03-02T08:56:46;99682.69;;;9.12;100.00
75401;BME280;63974;47.538;18.972;2024-03-02T08:59:48;99684.06;;;9.22;100.00
75401;BME280;63974;47.538;18.972;2024-03-02T09:02:51;99686.31;;;9.25;100.00
75401;BME280;63974;47.538;18.972;2024-03-02T09:05:54;99681.84;;;9.19;100.00
75401;BME280;63974;47.538;18.972;2024-03-02T09:08:57;99681.94;;;9.63;100.00
75401;BME280;63974;47.538;18.972;2024-03-02T09:12:00;99686.34;;;9.54;99.83
75401;BME280;63974;47.538;18.972;2024-03-02T09:15:03;99693.41;;;9.46;99.70
75401;BME280;63974;47.538;18.972;2024-03-02T09:18:05;99687.47;;;9.74;98.75
75401;BME280;63974;47.538;18.972;2024-03-02T09:21:09;99674.84;;;10.00;96.36
75401;BME280;63974;47.538;18.972;2024-03-02T09:24:12;99689.16;;;10.25;95.73
75401;BME280;63974;47.538;18.972;2024-03-02T09:27:19;99688.16;;;10.55;93.42
75401;BME280;63974;47.538;18.972;2024-03-02T09:30:22;99692.72;;;10.53;94.32
75401;BME280;63974;47.538;18.972;2024-03-02T09:33:26;99696.81;;;10.83;93.19
75401;BME280;63974;47.538;18.972;2024-03-02T09:36:29;99692.59;;;10.61;92.32
75401;BME280;63974;47.538;18.972;2024-03-02T09:39:31;99693.13;;;10.36;93.10
75401;BME280;63974;47.538;18.972;2024-03-02T09:42:34;99690.81;;;10.62;94.34
75401;BME280;63974;47.538;18.972;2024-03-02T09:45:37;99684.53;;;11.12;92.18
75401;BME280;63974;47.538;18.972;2024-03-02T09:48:40;99684.03;;;11.51;90.74
75401;BME280;63974;47.538;18.972;2024-03-02T09:51:49;99687.31;;;11.87;88.17
75401;BME280;63974;47.538;18.972;2024-03-02T09:54:52;99687.13;;;11.95;88.54
75401;BME280;63974;47.538;18.972;2024-03-02T09:57:55;99700.56;;;11.98;85.93
75401;BME280;63974;47.538;18.972;2024-03-02T10:00:58;99694.91;;;12.22;86.29
75401;BME280;63974;47.538;18.972;2024-03-02T10:04:01;99709.31;;;11.57;86.03
75401;BME280;63974;47.538;18.972;2024-03-02T10:07:14;99707.91;;;11.33;89.17
75401;BME280;63974;47.538;18.972;2024-03-02T10:10:18;99709.00;;;11.45;87.82
75401;BME280;63974;47.538;18.972;2024-03-02T10:13:24;99704.97;;;11.64;88.03
75401;BME280;63974;47.538;18.972;2024-03-02T10:16:27;99700.16;;;11.95;87.97
75401;BME280;63974;47.538;18.972;2024-03-02T10:19:30;99704.09;;;11.84;88.13
75401;BME280;63974;47.538;18.972;2024-03-02T10:22:35;99706.56;;;11.92;87.84
75401;BME280;63974;47.538;18.972;2024-03-02T10:25:38;99704.63;;;12.07;86.98
75401;BME280;63974;47.538;18.972;2024-03-02T10:28:55;99699.78;;;12.45;86.22
75401;BME280;63974;47.538;18.972;2024-03-02T10:32:02;99700.25;;;12.68;85.02
75401;BME280;63974;47.538;18.972;2024-03-02T10:35:05;99705.22;;;12.43;86.76
75401;BME280;63974;47.538;18.972;2024-03-02T10:38:11;99707.91;;;12.76;84.79
75401;BME280;63974;47.538;18.972;2024-03-02T10:41:18;99701.38;;;13.06;82.90
75401;BME280;63974;47.538;18.972;2024-03-02T10:44:22;99701.03;;;13.35;81.75
75401;BME280;63974;47.538;18.972;2024-03-02T10:47:26;99699.78;;;13.11;82.47
75401;BME280;63974;47.538;18.972;2024-03-02T10:50:30;99706.59;;;13.32;81.50
75401;BME280;63974;47.538;18.972;2024-03-02T10:53:34;99697.19;;;13.31;81.09
75401;BME280;63974;47.538;18.972;2024-03-02T10:56:41;99704.72;;;12.87;82.73
75401;BME280;63974;47.538;18.972;2024-03-02T10:59:56;99708.44;;;13.50;82.04
75401;BME280;63974;47.538;18.972;2024-03-02T11:03:05;99697.00;;;13.51;82.28
75401;BME280;63974;47.538;18.972;2024-03-02T11:06:09;99695.94;;;13.85;80.90
75401;BME280;63974;47.538;18.972;2024-03-02T11:09:14;99699.31;;;14.05;79.10
75401;BME280;63974;47.538;18.972;2024-03-02T11:12:23;99695.16;;;14.54;78.09
75401;BME280;63974;47.538;18.972;2024-03-02T11:15:27;99684.28;;;14.57;78.74
75401;BME280;63974;47.538;18.972;2024-03-02T11:18:31;99688.50;;;14.89;77.41
75401;BME280;63974;47.538;18.972;2024-03-02T11:21:35;99677.19;;;15.33;76.13
75401;BME280;63974;47.538;18.972;2024-03-02T11:24:38;99683.78;;;15.60;74.73
75401;BME280;63974;47.538;18.972;2024-03-02T11:30:51;99683.25;;;15.51;73.13
75401;BME280;63974;47.538;18.972;2024-03-02T11:33:54;99671.88;;;15.64;73.87
75401;BME280;63974;47.538;18.972;2024-03-02T11:37:03;99670.84;;;15.65;72.07
75401;BME280;63974;47.538;18.972;2024-03-02T11:40:09;99677.59;;;15.54;72.63
75401;BME280;63974;47.538;18.972;2024-03-02T11:43:13;99669.38;;;15.68;74.35
75401;BME280;63974;47.538;18.972;2024-03-02T11:46:16;99669.69;;;15.36;75.07
75401;BME280;63974;47.538;18.972;2024-03-02T11:49:38;99667.50;;;15.58;75.28
75401;BME280;63974;47.538;18.972;2024-03-02T11:52:41;99672.44;;;15.17;75.51
75401;BME280;63974;47.538;18.972;2024-03-02T11:55:47;99669.19;;;14.97;75.78
75401;BME280;63974;47.538;18.972;2024-03-02T11:58:53;99676.69;;;15.11;76.50
75401;BME280;63974;47.538;18.972;2024-03-02T12:01:57;99675.00;;;14.99;77.04
75401;BME280;63974;47.538;18.972;2024-03-02T12:05:02;99670.09;;;14.78;78.04
75401;BME280;63974;47.538;18.972;2024-03-02T12:08:07;99669.63;;;14.87;77.40
75401;BME280;63974;47.538;18.972;2024-03-02T12:11:13;99673.38;;;14.98;78.36
75401;BME280;63974;47.538;18.972;2024-03-02T12:14:18;99668.69;;;15.06;76.53
75401;BME280;63974;47.538;18.972;2024-03-02T12:17:21;99669.94;;;15.28;74.60
75401;BME280;63974;47.538;18.972;2024-03-02T12:20:27;99667.88;;;15.37;74.74
75401;BME280;63974;47.538;18.972;2024-03-02T12:23:31;99639.44;;;15.47;74.87
75401;BME280;63974;47.538;18.972;2024-03-02T12:26:34;99659.53;;;16.06;72.48
75401;BME280;63974;47.538;18.972;2024-03-02T12:29:37;99656.97;;;16.36;73.15
75401;BME280;63974;47.538;18.972;2024-03-02T12:32:41;99654.00;;;16.14;72.75
75401;BME280;63974;47.538;18.972;2024-03-02T12:35:43;99657.84;;;15.76;73.99
75401;BME280;63974;47.538;18.972;2024-03-02T12:38:46;99658.53;;;15.23;76.54
75401;BME280;63974;47.538;18.972;2024-03-02T12:41:50;99658.81;;;15.39;75.31
75401;BME280;63974;47.538;18.972;2024-03-02T12:44:53;99652.72;;;15.45;75.69
75401;BME280;63974;47.538;18.972;2024-03-02T12:48:00;99658.66;;;15.03;76.81
75401;BME280;63974;47.538;18.972;2024-03-02T12:51:03;99641.97;;;15.04;76.93
75401;BME280;63974;47.538;18.972;2024-03-02T12:54:10;99649.03;;;14.97;76.56
75401;BME280;63974;47.538;18.972;2024-03-02T12:57:19;99653.75;;;14.89;78.22
75401;BME280;63974;47.538;18.972;2024-03-02T13:00:22;99647.44;;;14.96;76.46
75401;BME280;63974;47.538;18.972;2024-03-02T13:03:25;99650.19;;;14.77;80.00
75401;BME280;63974;47.538;18.972;2024-03-02T13:06:28;99651.53;;;14.55;79.72
75401;BME280;63974;47.538;18.972;2024-03-02T13:09:31;99648.44;;;14.33;80.63
75401;BME280;63974;47.538;18.972;2024-03-02T13:12:36;99643.84;;;14.22;82.42
75401;BME280;63974;47.538;18.972;2024-03-02T13:15:40;99652.50;;;14.16;82.37
75401;BME280;63974;47.538;18.972;2024-03-02T13:18:44;99648.28;;;14.09;81.97
75401;BME280;63974;47.538;18.972;2024-03-02T13:21:47;99640.09;;;13.92;83.65
75401;BME280;63974;47.538;18.972;2024-03-02T13:24:51;99649.78;;;13.85;84.73
75401;BME280;63974;47.538;18.972;2024-03-02T13:27:54;99648.19;;;13.78;84.82
75401;BME280;63974;47.538;18.972;2024-03-02T13:30:57;99651.63;;;13.65;84.51
75401;BME280;63974;47.538;18.972;2024-03-02T13:34:00;99656.66;;;13.67;84.80
75401;BME280;63974;47.538;18.972;2024-03-02T13:37:03;99655.66;;;13.61;84.23
75401;BME280;63974;47.538;18.972;2024-03-02T13:40:08;99650.63;;;13.60;84.86
75401;BME280;63974;47.538;18.972;2024-03-02T13:43:15;99654.00;;;13.86;83.45
75401;BME280;63974;47.538;18.972;2024-03-02T13:46:18;99653.16;;;14.05;83.24
75401;BME280;63974;47.538;18.972;2024-03-02T13:49:21;99652.91;;;14.13;82.89
75401;BME280;63974;47.538;18.972;2024-03-02T13:52:25;99647.94;;;13.99;82.94
75401;BME280;63974;47.538;18.972;2024-03-02T13:55:29;99650.28;;;14.13;83.00
75401;BME280;63974;47.538;18.972;2024-03-02T13:58:32;99646.28;;;14.04;84.40
75401;BME280;63974;47.538;18.972;2024-03-02T14:01:34;99646.13;;;13.99;84.23
75401;BME280;63974;47.538;18.972;2024-03-02T14:04:38;99652.00;;;13.82;84.10
75401;BME280;63974;47.538;18.972;2024-03-02T14:07:42;99642.38;;;13.82;84.49
75401;BME280;63974;47.538;18.972;2024-03-02T14:10:44;99655.63;;;13.74;84.60
75401;BME280;63974;47.538;18.972;2024-03-02T14:13:47;99648.38;;;13.76;84.32
75401;BME280;63974;47.538;18.972;2024-03-02T14:16:56;99645.03;;;13.56;83.10
75401;BME280;63974;47.538;18.972;2024-03-02T14:20:03;99654.06;;;13.60;83.87
75401;BME280;63974;47.538;18.972;2024-03-02T14:23:07;99642.38;;;13.82;83.41
75401;BME280;63974;47.538;18.972;2024-03-02T14:26:10;99643.75;;;13.85;82.86
75401;BME280;63974;47.538;18.972;2024-03-02T14:29:12;99636.34;;;13.82;81.55
75401;BME280;63974;47.538;18.972;2024-03-02T14:32:15;99641.56;;;13.82;81.10
75401;BME280;63974;47.538;18.972;2024-03-02T14:35:18;99629.91;;;13.84;79.79
75401;BME280;63974;47.538;18.972;2024-03-02T14:38:21;99634.13;;;13.85;79.23
75401;BME280;63974;47.538;18.972;2024-03-02T14:41:24;99627.28;;;13.91;79.89
75401;BME280;63974;47.538;18.972;2024-03-02T14:44:27;99630.13;;;13.76;81.60
75401;BME280;63974;47.538;18.972;2024-03-02T14:47:31;99625.16;;;13.68;81.09
75401;BME280;63974;47.538;18.972;2024-03-02T14:50:34;99630.56;;;13.67;82.66
75401;BME280;63974;47.538;18.972;2024-03-02T14:53:37;99637.81;;;13.52;82.40
75401;BME280;63974;47.538;18.972;2024-03-02T14:56:40;99641.03;;;13.54;82.90
75401;BME280;63974;47.538;18.972;2024-03-02T14:59:43;99632.19;;;13.48;83.51
75401;BME280;63974;47.538;18.972;2024-03-02T15:02:45;99633.63;;;13.44;83.96
75401;BME280;63974;47.538;18.972;2024-03-02T15:05:48;99637.59;;;13.53;83.28
75401;BME280;63974;47.538;18.972;2024-03-02T15:08:54;99618.75;;;13.38;83.54
75401;BME280;63974;47.538;18.972;2024-03-02T15:11:57;99638.44;;;13.41;84.25
75401;BME280;63974;47.538;18.972;2024-03-02T15:15:00;99639.63;;;13.38;84.30
75401;BME280;63974;47.538;18.972;2024-03-02T15:18:02;99640.03;;;13.36;84.47
75401;BME280;63974;47.538;18.972;2024-03-02T15:21:08;99632.00;;;13.31;84.03
75401;BME280;63974;47.538;18.972;2024-03-02T15:24:11;99631.63;;;13.27;84.70
75401;BME280;63974;47.538;18.972;2024-03-02T15:27:13;99637.03;;;13.26;84.75
75401;BME280;63974;47.538;18.972;2024-03-02T15:30:16;99637.03;;;13.19;85.86
75401;BME280;63974;47.538;18.972;2024-03-02T15:33:21;99637.44;;;13.16;86.65
75401;BME280;63974;47.538;18.972;2024-03-02T15:36:27;99638.63;;;13.14;87.55
75401;BME280;63974;47.538;18.972;2024-03-02T15:39:30;99639.22;;;13.16;87.80
75401;BME280;63974;47.538;18.972;2024-03-02T15:42:33;99643.84;;;13.14;88.06
75401;BME280;63974;47.538;18.972;2024-03-02T15:45:36;99646.28;;;13.09;88.93
75401;BME280;63974;47.538;18.972;2024-03-02T15:48:39;99645.25;;;12.97;88.89
75401;BME280;63974;47.538;18.972;2024-03-02T15:51:41;99642.63;;;12.90;89.51
75401;BME280;63974;47.538;18.972;2024-03-02T15:54:49;99640.78;;;12.78;90.25
75401;BME280;63974;47.538;18.972;2024-03-02T15:57:52;99647.19;;;12.75;90.93
75401;BME280;63974;47.538;18.972;2024-03-02T16:00:55;99646.38;;;12.68;91.56
75401;BME280;63974;47.538;18.972;2024-03-02T16:03:59;99657.56;;;12.62;92.07
75401;BME280;63974;47.538;18.972;2024-03-02T16:07:02;99665.56;;;12.48;92.57
75401;BME280;63974;47.538;18.972;2024-03-02T16:10:05;99667.50;;;12.33;92.81
75401;BME280;63974;47.538;18.972;2024-03-02T16:13:10;99664.09;;;12.32;92.82